Time;durP1;ratioP1;P1;durP2;ratioP2;P2;SDS_P1;SDS_P2;PMS_P1;PMS_P2;Temp;Humidity;BMP_temperature;BMP_pressure;BME280_temperature;BME280_humidity;BME280_pressure;Samples;Min_cycle;Max_cycle;Signal;HPM_P1;HPM_P2
2021/11/03 00:01:29;;;;;;;31.47;15.80;;;5.40;89.70;;;;;;5058588;28;20554;-84
2021/11/03 00:03:55;;;;;;;16.87;15.07;;;5.40;89.60;;;;;;5076438;28;20738;-84
2021/11/03 00:06:23;;;;;;;19.00;15.90;;;5.60;89.60;;;;;;5076169;28;20195;-83
2021/11/03 00:08:50;;;;;;;21.53;16.10;;;5.60;89.60;;;;;;5059007;28;20225;-84
2021/11/03 00:11:17;;;;;;;22.90;16.57;;;5.60;89.60;;;;;;5076904;28;20171;-83
2021/11/03 00:13:43;;;;;;;22.47;18.47;;;5.70;89.60;;;;;;5076214;28;20294;-84
2021/11/03 00:16:11;;;;;;;23.33;17.30;;;5.80;89.80;;;;;;5058619;28;20211;-84
2021/11/03 00:18:36;;;;;;;21.93;17.00;;;5.90;90.00;;;;;;5076923;28;20178;-83
2021/11/03 00:21:04;;;;;;;22.07;18.33;;;5.90;90.00;;;;;;5077148;28;20517;-84
2021/11/03 00:23:30;;;;;;;26.57;19.27;;;6.00;90.10;;;;;;5076155;28;20274;-84
2021/11/03 00:25:55;;;;;;;28.97;21.53;;;6.10;90.40;;;;;;5075004;28;20202;-83
2021/11/03 00:28:22;;;;;;;23.90;20.30;;;6.20;90.70;;;;;;5058648;28;20203;-83
2021/11/03 00:30:51;;;;;;;29.27;20.37;;;6.10;90.80;;;;;;5076461;28;20639;-83
2021/11/03 00:33:19;;;;;;;28.53;21.23;;;6.20;90.90;;;;;;5058165;28;20171;-83
2021/11/03 00:35:45;;;;;;;30.47;20.87;;;6.30;91.00;;;;;;5058777;28;20179;-84
2021/11/03 00:38:11;;;;;;;25.80;19.63;;;6.30;91.10;;;;;;5076827;28;20176;-83
2021/11/03 00:40:37;;;;;;;28.07;19.27;;;6.30;91.20;;;;;;5076456;28;20217;-83
2021/11/03 00:43:03;;;;;;;26.23;20.40;;;6.30;91.20;;;;;;5058464;28;20202;-83
2021/11/03 00:45:29;;;;;;;26.20;20.57;;;6.30;91.20;;;;;;5058934;28;20544;-84
2021/11/03 00:47:55;;;;;;;23.73;19.60;;;6.30;91.30;;;;;;5058762;28;20253;-83
2021/11/03 00:50:23;;;;;;;25.93;20.17;;;6.30;91.30;;;;;;5058959;28;20172;-83
2021/11/03 00:52:49;;;;;;;26.63;19.57;;;6.20;91.40;;;;;;5077007;28;20182;-83
2021/11/03 00:55:15;;;;;;;24.70;20.23;;;6.20;91.50;;;;;;5059189;28;20248;-83
2021/11/03 00:57:41;;;;;;;28.00;19.20;;;6.30;91.70;;;;;;5060641;28;20187;-83
2021/11/03 01:00:09;;;;;;;27.57;20.50;;;6.30;91.80;;;;;;5080085;28;20197;-83
2021/11/03 01:02:35;;;;;;;27.57;20.30;;;6.30;91.90;;;;;;5062418;28;20238;-83
2021/11/03 01:05:02;;;;;;;30.97;19.87;;;6.30;91.90;;;;;;5062284;28;20191;-83
2021/11/03 01:07:28;;;;;;;26.73;18.67;;;6.30;91.90;;;;;;5062159;28;20216;-83
2021/11/03 01:09:53;;;;;;;28.00;19.70;;;6.20;91.80;;;;;;5061909;28;20643;-83
2021/11/03 01:12:19;;;;;;;26.47;19.70;;;6.20;91.80;;;;;;5062732;28;20172;-83
2021/11/03 01:14:45;;;;;;;31.10;21.20;;;6.20;91.80;;;;;;5062810;28;20221;-83
2021/11/03 01:17:10;;;;;;;25.87;19.40;;;6.10;91.80;;;;;;5063283;28;20597;-83
2021/11/03 01:19:36;;;;;;;31.47;21.90;;;6.10;91.90;;;;;;5080178;28;20200;-83
2021/11/03 01:22:02;;;;;;;30.20;20.27;;;6.10;91.90;;;;;;5080551;28;20195;-83
2021/11/03 01:24:28;;;;;;;33.30;21.10;;;6.20;91.90;;;;;;5079923;28;20184;-83
2021/11/03 01:26:54;;;;;;;27.73;19.97;;;6.20;91.80;;;;;;5062361;28;20244;-83
2021/11/03 01:29:20;;;;;;;24.73;20.13;;;6.20;91.80;;;;;;5080009;28;20226;-83
2021/11/03 01:31:45;;;;;;;31.87;20.73;;;6.10;91.80;;;;;;5061896;28;20180;-84
2021/11/03 01:34:11;;;;;;;26.23;20.57;;;6.20;91.80;;;;;;5061710;28;20202;-84
2021/11/03 01:36:37;;;;;;;27.00;20.57;;;6.20;91.80;;;;;;5080582;28;20172;-84
2021/11/03 01:39:05;;;;;;;27.47;20.00;;;6.20;91.70;;;;;;5062455;28;20179;-84
2021/11/03 01:41:32;;;;;;;25.73;19.90;;;6.30;91.70;;;;;;5063345;28;20215;-84
2021/11/03 01:44:10;;;;;;;28.30;19.53;;;6.30;91.80;;;;;;5080740;28;20191;-84
2021/11/03 01:46:39;;;;;;;28.17;20.83;;;6.30;91.70;;;;;;5080486;28;20185;-83
2021/11/03 01:49:27;;;;;;;24.27;19.13;;;6.40;91.70;;;;;;5062900;28;20678;-84
2021/11/03 01:52:08;;;;;;;49.40;20.77;;;6.40;91.70;;;;;;5080350;28;20206;-83
2021/11/03 01:54:44;;;;;;;25.57;20.03;;;6.40;91.70;;;;;;5080725;28;20202;-83
2021/11/03 01:57:13;;;;;;;27.60;20.93;;;6.50;91.80;;;;;;5080832;28;20259;-83
2021/11/03 01:59:44;;;;;;;33.93;20.80;;;6.50;91.80;;;;;;5061862;28;20183;-83
2021/11/03 02:02:11;;;;;;;24.93;19.20;;;6.50;91.70;;;;;;5079586;28;20188;-84
2021/11/03 02:04:37;;;;;;;31.57;21.40;;;6.50;91.70;;;;;;5078733;28;20195;-83
2021/11/03 02:07:08;;;;;;;24.37;20.27;;;6.50;91.80;;;;;;5065846;28;20179;-84
2021/11/03 02:09:34;;;;;;;29.33;20.93;;;6.60;91.80;;;;;;5077628;28;20539;-83
2021/11/03 02:12:00;;;;;;;28.23;20.83;;;6.60;91.80;;;;;;5060031;28;20206;-83
2021/11/03 02:14:26;;;;;;;29.40;21.90;;;6.70;91.70;;;;;;5059365;28;20707;-84
2021/11/03 02:16:55;;;;;;;28.50;20.90;;;6.70;91.70;;;;;;5078427;28;20544;-84
2021/11/03 02:19:27;;;;;;;25.97;21.63;;;6.60;91.70;;;;;;5060675;28;20575;-83
2021/11/03 02:22:22;;;;;;;25.77;19.67;;;6.60;91.80;;;;;;5076554;28;20242;-84
2021/11/03 02:25:29;;;;;;;25.97;19.20;;;6.60;91.60;;;;;;5073769;28;20203;-84
2021/11/03 02:27:57;;;;;;;30.37;19.77;;;6.60;91.60;;;;;;5029845;28;20674;-84
2021/11/03 02:30:25;;;;;;;30.70;19.60;;;6.60;91.60;;;;;;5078091;28;20197;-84
2021/11/03 02:33:08;;;;;;;27.30;19.57;;;6.60;91.60;;;;;;5060410;28;20183;-83
2021/11/03 02:35:36;;;;;;;24.50;18.07;;;6.60;91.60;;;;;;5078879;28;20155;-85
2021/11/03 02:38:03;;;;;;;28.03;20.30;;;6.60;91.60;;;;;;5062062;28;20183;-85
2021/11/03 02:40:31;;;;;;;26.17;19.13;;;6.60;91.60;;;;;;5061561;28;20179;-85
2021/11/03 02:43:17;;;;;;;22.30;17.37;;;6.60;91.60;;;;;;5061197;28;20211;-85
2021/11/03 02:45:54;;;;;;;23.97;18.97;;;6.70;91.70;;;;;;5078709;28;20194;-85
2021/11/03 02:48:23;;;;;;;22.53;17.70;;;6.70;91.60;;;;;;5061503;28;20178;-85
2021/11/03 02:50:52;;;;;;;23.40;17.63;;;6.70;91.60;;;;;;5079556;28;20195;-85
2021/11/03 02:53:18;;;;;;;22.37;16.77;;;6.70;91.50;;;;;;5079080;28;20206;-85
2021/11/03 02:55:44;;;;;;;23.53;17.63;;;6.60;91.40;;;;;;5060656;28;20180;-85
2021/11/03 02:58:09;;;;;;;20.80;16.90;;;6.60;91.40;;;;;;5060623;28;20233;-85
2021/11/03 03:00:35;;;;;;;21.23;17.10;;;6.60;91.50;;;;;;5078735;28;20205;-85
2021/11/03 03:03:00;;;;;;;20.03;15.33;;;6.70;91.50;;;;;;5078773;28;20206;-85
2021/11/03 03:05:26;;;;;;;21.73;16.97;;;6.70;91.40;;;;;;5078901;28;20221;-85
2021/11/03 03:07:52;;;;;;;25.07;16.50;;;6.70;91.40;;;;;;5060665;28;20186;-85
2021/11/03 03:10:18;;;;;;;22.73;16.60;;;6.60;91.30;;;;;;5060702;28;20171;-85
2021/11/03 03:12:44;;;;;;;22.63;16.70;;;6.60;91.40;;;;;;5060897;28;20183;-85
2021/11/03 03:15:10;;;;;;;20.73;16.23;;;6.60;91.50;;;;;;5060801;28;20215;-85
2021/11/03 03:17:35;;;;;;;21.53;16.13;;;6.60;91.50;;;;;;5060612;28;20191;-85
2021/11/03 03:20:01;;;;;;;22.37;17.37;;;6.60;91.60;;;;;;5078518;28;20183;-85
2021/11/03 03:22:27;;;;;;;21.03;16.97;;;6.60;91.50;;;;;;5078324;28;20278;-85
2021/11/03 03:24:53;;;;;;;23.13;16.47;;;6.60;91.70;;;;;;5060929;28;20222;-85
2021/11/03 03:27:18;;;;;;;23.60;17.77;;;6.60;91.70;;;;;;5060387;28;20232;-85
2021/11/03 03:29:45;;;;;;;24.40;16.43;;;6.70;91.70;;;;;;5060823;28;20641;-85
2021/11/03 03:32:11;;;;;;;24.90;17.23;;;6.70;91.70;;;;;;5060594;28;20266;-85
2021/11/03 03:34:37;;;;;;;22.23;17.43;;;6.70;91.60;;;;;;5078490;28;20195;-85
2021/11/03 03:37:04;;;;;;;23.03;16.17;;;6.60;91.60;;;;;;5078511;28;20702;-85
2021/11/03 03:39:30;;;;;;;20.73;16.73;;;6.70;91.60;;;;;;5078310;28;20206;-85
2021/11/03 03:42:05;;;;;;;22.93;17.17;;;6.60;91.70;;;;;;5077702;28;20206;-85
2021/11/03 03:44:30;;;;;;;22.03;16.27;;;6.70;91.70;;;;;;5078467;28;20363;-85
2021/11/03 03:46:57;;;;;;;24.57;17.27;;;6.70;91.70;;;;;;5079132;28;20194;-85
2021/11/03 03:49:23;;;;;;;21.87;16.17;;;6.60;91.70;;;;;;5060378;28;20179;-85
2021/11/03 03:51:48;;;;;;;24.87;17.80;;;6.60;91.80;;;;;;5059772;28;20180;-85
2021/11/03 03:54:15;;;;;;;19.10;16.87;;;6.60;91.90;;;;;;5060508;28;20199;-85
2021/11/03 03:56:40;;;;;;;22.60;16.53;;;6.60;91.90;;;;;;5060176;28;20367;-85
2021/11/03 03:59:06;;;;;;;23.57;18.63;;;6.60;91.90;;;;;;5078128;28;20175;-85
2021/11/03 04:01:32;;;;;;;21.23;17.07;;;6.60;91.90;;;;;;5077286;28;20196;-85
2021/11/03 04:03:58;;;;;;;23.33;17.60;;;6.60;91.90;;;;;;5077626;28;20683;-85
2021/11/03 04:06:23;;;;;;;26.33;18.13;;;6.70;92.00;;;;;;5059813;28;20176;-85
2021/11/03 04:08:49;;;;;;;24.33;18.53;;;6.60;92.00;;;;;;5059860;28;20182;-85
2021/11/03 04:11:15;;;;;;;30.47;18.60;;;6.70;92.10;;;;;;5060078;28;20546;-85
2021/11/03 04:13:42;;;;;;;24.37;18.97;;;6.70;92.10;;;;;;5077314;28;20210;-85
2021/11/03 04:16:08;;;;;;;27.53;18.20;;;6.80;92.00;;;;;;5059906;28;20175;-85
2021/11/03 04:18:34;;;;;;;23.63;18.93;;;6.80;91.90;;;;;;5059818;28;20186;-85
2021/11/03 04:21:00;;;;;;;30.53;19.57;;;6.80;91.90;;;;;;5060059;28;20242;-85
2021/11/03 04:23:26;;;;;;;27.27;19.87;;;6.80;91.80;;;;;;5077673;28;20249;-85
2021/11/03 04:25:52;;;;;;;28.00;19.47;;;6.70;91.90;;;;;;5059571;28;20702;-85
2021/11/03 04:28:17;;;;;;;29.30;20.33;;;6.70;92.00;;;;;;5059725;28;20183;-85
2021/11/03 04:30:44;;;;;;;27.60;21.03;;;6.70;92.20;;;;;;5077791;28;20171;-85
2021/11/03 04:33:10;;;;;;;25.53;19.70;;;6.80;92.20;;;;;;5062017;28;20198;-85
2021/11/03 04:35:36;;;;;;;26.37;18.53;;;6.80;92.20;;;;;;5063546;28;20674;-85
2021/11/03 04:38:03;;;;;;;26.63;18.93;;;6.80;92.10;;;;;;5081505;28;20179;-85
2021/11/03 04:40:29;;;;;;;25.50;18.07;;;6.80;92.10;;;;;;5063508;28;20179;-85
2021/11/03 04:42:55;;;;;;;27.40;19.67;;;6.80;92.10;;;;;;5063325;28;20226;-85
2021/11/03 04:45:23;;;;;;;29.90;19.27;;;6.80;92.10;;;;;;5080584;28;20226;-85
2021/11/03 04:47:49;;;;;;;26.33;18.77;;;6.80;92.10;;;;;;5079865;28;20176;-85
2021/11/03 04:50:19;;;;;;;24.00;18.20;;;6.80;92.00;;;;;;5080416;28;20666;-85
2021/11/03 04:52:45;;;;;;;26.17;18.23;;;6.80;92.00;;;;;;5080668;28;20171;-85
2021/11/03 04:55:11;;;;;;;27.27;17.63;;;6.80;92.00;;;;;;5080757;28;20674;-85
2021/11/03 04:57:37;;;;;;;24.73;18.13;;;6.70;92.00;;;;;;5062674;28;20183;-85
2021/11/03 05:00:26;;;;;;;24.17;18.83;;;6.80;92.10;;;;;;5062679;28;20183;-85
2021/11/03 05:02:53;;;;;;;24.57;18.63;;;6.80;92.10;;;;;;5080371;28;20651;-85
2021/11/03 05:05:19;;;;;;;26.43;19.10;;;6.80;92.20;;;;;;5080364;28;20206;-85
2021/11/03 05:07:46;;;;;;;27.57;18.73;;;6.80;92.10;;;;;;5080514;28;20250;-85
2021/11/03 05:10:13;;;;;;;27.23;20.13;;;6.80;92.10;;;;;;5080656;28;20171;-85
2021/11/03 05:12:38;;;;;;;30.40;18.73;;;6.80;92.10;;;;;;5080300;28;20633;-85
2021/11/03 05:15:05;;;;;;;27.20;19.97;;;6.80;92.10;;;;;;5121929;22;20318;-84
2021/11/03 05:17:30;;;;;;;24.23;17.37;;;6.80;92.20;;;;;;5058771;28;20255;-84
2021/11/03 05:19:56;;;;;;;23.93;17.27;;;6.90;92.20;;;;;;5057938;28;20199;-85
2021/11/03 05:22:25;;;;;;;24.40;17.97;;;6.90;92.10;;;;;;5040466;28;20663;-84
2021/11/03 05:24:51;;;;;;;30.23;17.63;;;7.00;92.10;;;;;;5058208;28;20188;-85
2021/11/03 05:27:16;;;;;;;25.73;18.37;;;6.90;92.00;;;;;;5058734;28;20708;-85
2021/11/03 05:29:42;;;;;;;22.83;16.27;;;6.90;92.00;;;;;;5058656;28;20323;-84
2021/11/03 05:32:08;;;;;;;22.93;17.40;;;6.90;91.90;;;;;;5040266;28;20637;-85
2021/11/03 05:34:34;;;;;;;22.50;17.20;;;6.90;91.90;;;;;;5058966;28;20199;-85
2021/11/03 05:37:00;;;;;;;21.90;16.43;;;6.90;91.80;;;;;;5040173;28;20176;-85
2021/11/03 05:39:26;;;;;;;25.37;17.30;;;6.90;91.80;;;;;;5057916;28;20172;-85
2021/11/03 05:41:51;;;;;;;25.20;17.90;;;6.80;91.70;;;;;;5040072;28;20203;-85
2021/11/03 05:44:19;;;;;;;24.43;17.53;;;6.80;91.80;;;;;;5056867;28;20188;-85
2021/11/03 05:46:53;;;;;;;25.97;18.30;;;6.80;91.80;;;;;;5058277;28;20213;-85
2021/11/03 05:49:23;;;;;;;23.53;17.97;;;6.80;91.80;;;;;;5057829;28;20175;-84
2021/11/03 05:51:49;;;;;;;23.67;17.93;;;6.70;91.80;;;;;;5057969;28;20164;-84
2021/11/03 05:54:18;;;;;;;25.53;18.67;;;6.70;91.80;;;;;;5039509;28;20192;-85
2021/11/03 05:56:46;;;;;;;27.33;18.63;;;6.70;91.70;;;;;;5058361;28;20243;-85
2021/11/03 05:59:12;;;;;;;26.63;19.10;;;6.70;91.80;;;;;;5039950;28;20176;-85
2021/11/03 06:01:38;;;;;;;24.20;18.83;;;6.60;91.60;;;;;;5041119;28;20180;-84
2021/11/03 06:04:04;;;;;;;27.13;18.10;;;6.60;91.70;;;;;;5040639;28;20200;-85
2021/11/03 06:06:29;;;;;;;23.27;17.73;;;6.60;91.60;;;;;;5042743;28;20172;-85
2021/11/03 06:08:55;;;;;;;23.30;17.47;;;6.60;91.60;;;;;;5040951;28;20206;-84
2021/11/03 06:11:23;;;;;;;27.00;18.17;;;6.50;91.40;;;;;;5040407;28;20259;-85
2021/11/03 06:13:49;;;;;;;25.00;18.87;;;6.50;91.30;;;;;;5040326;28;20208;-85
2021/11/03 06:16:15;;;;;;;22.90;18.03;;;6.50;91.30;;;;;;5058501;28;20261;-85
2021/11/03 06:18:41;;;;;;;26.20;17.70;;;6.50;91.10;;;;;;5040354;28;20176;-85
2021/11/03 06:21:07;;;;;;;25.90;19.47;;;6.40;91.00;;;;;;5040437;28;20176;-85
2021/11/03 06:23:32;;;;;;;23.83;17.87;;;6.30;90.90;;;;;;5058222;28;20291;-85
2021/11/03 06:25:58;;;;;;;25.10;18.47;;;6.30;90.80;;;;;;5040290;28;20224;-85
2021/11/03 06:28:24;;;;;;;22.67;17.97;;;6.10;90.80;;;;;;5057791;28;20164;-85
2021/11/03 06:30:50;;;;;;;27.50;19.70;;;6.00;91.00;;;;;;5039111;28;20168;-84
2021/11/03 06:33:16;;;;;;;25.97;19.10;;;5.80;91.20;;;;;;5057789;28;20264;-85
2021/11/03 06:35:43;;;;;;;31.43;20.73;;;5.70;91.50;;;;;;5039413;28;20212;-84
2021/11/03 06:38:10;;;;;;;30.03;20.60;;;5.70;91.80;;;;;;5057524;28;20183;-84
2021/11/03 06:40:36;;;;;;;33.80;22.63;;;5.70;92.10;;;;;;5039757;28;20262;-84
2021/11/03 06:43:03;;;;;;;31.03;21.57;;;5.70;92.30;;;;;;5039793;28;20211;-84
2021/11/03 06:45:29;;;;;;;35.83;22.10;;;5.80;92.40;;;;;;5058448;28;20322;-85
2021/11/03 06:47:55;;;;;;;37.67;22.93;;;5.80;92.50;;;;;;5056777;28;20187;-84
2021/11/03 06:50:25;;;;;;;37.20;22.80;;;5.80;92.50;;;;;;5039450;28;20316;-85
2021/11/03 06:52:52;;;;;;;41.03;22.83;;;5.80;92.70;;;;;;5056925;28;20175;-84
2021/11/03 06:55:19;;;;;;;38.00;23.83;;;5.80;92.70;;;;;;5056962;28;20222;-84
2021/11/03 06:57:45;;;;;;;40.53;25.27;;;5.90;92.80;;;;;;5057250;28;20172;-85
2021/11/03 07:00:15;;;;;;;45.63;26.27;;;6.00;92.80;;;;;;5057294;28;20183;-84
2021/11/03 07:02:41;;;;;;;41.33;25.10;;;6.00;92.80;;;;;;5038020;28;20196;-84
2021/11/03 07:05:07;;;;;;;39.10;25.70;;;6.00;92.80;;;;;;5037941;28;20203;-84
2021/11/03 07:07:33;;;;;;;43.67;24.87;;;6.00;92.80;;;;;;5056156;28;20172;-84
2021/11/03 07:09:59;;;;;;;41.07;25.47;;;6.00;92.80;;;;;;5038342;28;20229;-84
2021/11/03 07:12:25;;;;;;;41.63;26.07;;;6.00;92.80;;;;;;5038140;28;20184;-84
2021/11/03 07:14:51;;;;;;;42.67;25.80;;;6.00;92.80;;;;;;5055545;28;20696;-84
2021/11/03 07:17:16;;;;;;;41.47;25.53;;;6.00;92.80;;;;;;5056259;28;20172;-84
2021/11/03 07:19:43;;;;;;;44.40;25.07;;;6.00;92.70;;;;;;5057531;28;20643;-83
2021/11/03 07:22:09;;;;;;;38.57;24.60;;;6.00;92.60;;;;;;5040053;28;20213;-83
2021/11/03 07:24:36;;;;;;;40.73;26.33;;;6.00;92.60;;;;;;5039251;28;20217;-84
2021/11/03 07:27:02;;;;;;;40.90;26.10;;;6.00;92.50;;;;;;5056699;28;20178;-84
2021/11/03 07:29:28;;;;;;;36.63;23.37;;;6.00;92.40;;;;;;5037732;28;20179;-84
2021/11/03 07:31:54;;;;;;;32.53;23.10;;;6.00;92.40;;;;;;5038228;28;20185;-84
2021/11/03 07:34:20;;;;;;;38.50;25.03;;;6.00;92.30;;;;;;5055397;28;20228;-84
2021/11/03 07:36:46;;;;;;;35.30;24.07;;;6.00;92.20;;;;;;5038141;28;20214;-84
2021/11/03 07:39:12;;;;;;;33.57;22.93;;;6.10;92.30;;;;;;5038725;28;20183;-84
2021/11/03 07:41:39;;;;;;;35.40;23.83;;;6.10;92.20;;;;;;5038774;28;20172;-83
2021/11/03 07:44:05;;;;;;;32.63;22.53;;;6.20;92.10;;;;;;5055623;28;20184;-85
2021/11/03 07:46:32;;;;;;;36.23;23.33;;;6.20;92.10;;;;;;5056275;28;20176;-84
2021/11/03 07:48:57;;;;;;;35.27;23.83;;;6.20;92.00;;;;;;5056989;28;20640;-84
2021/11/03 07:51:23;;;;;;;35.93;23.33;;;6.10;91.80;;;;;;5037990;28;20179;-84
2021/11/03 07:53:51;;;;;;;31.80;22.80;;;6.20;91.90;;;;;;5055953;28;20207;-84
2021/11/03 07:56:21;;;;;;;33.83;23.67;;;6.20;91.90;;;;;;5056615;28;20172;-84
2021/11/03 07:58:49;;;;;;;35.90;24.37;;;6.20;91.80;;;;;;5056599;28;20160;-84
2021/11/03 08:01:15;;;;;;;34.47;23.07;;;6.20;91.80;;;;;;5056525;28;20204;-83
2021/11/03 08:03:41;;;;;;;39.27;26.17;;;6.30;91.70;;;;;;5057159;28;20215;-84
2021/11/03 08:06:10;;;;;;;37.80;24.87;;;6.20;91.70;;;;;;5038570;28;20185;-84
2021/11/03 08:08:43;;;;;;;39.70;24.63;;;6.20;91.80;;;;;;5038250;28;20642;-83
2021/11/03 08:11:09;;;;;;;45.47;25.63;;;6.20;91.90;;;;;;5056284;28;20530;-83
2021/11/03 08:13:36;;;;;;;45.93;27.27;;;6.20;91.90;;;;;;5038615;28;20195;-83
2021/11/03 08:16:03;;;;;;;39.20;25.17;;;6.20;92.10;;;;;;5057421;28;20254;-83
2021/11/03 08:18:39;;;;;;;43.40;26.57;;;6.20;92.00;;;;;;5056359;28;20191;-83
2021/11/03 08:21:05;;;;;;;45.90;25.83;;;6.20;92.20;;;;;;5056969;28;20167;-84
2021/11/03 08:23:32;;;;;;;44.20;27.30;;;6.20;92.30;;;;;;5037998;28;20207;-83
2021/11/03 08:25:57;;;;;;;45.90;27.13;;;6.20;92.40;;;;;;5039185;28;20250;-84
2021/11/03 08:28:24;;;;;;;49.47;28.33;;;6.30;92.40;;;;;;5038653;28;20644;-84
2021/11/03 08:30:53;;;;;;;45.00;28.73;;;6.30;92.50;;;;;;5038226;28;20552;-83
2021/11/03 08:33:36;;;;;;;45.30;27.10;;;6.40;92.40;;;;;;5055981;28;20180;-84
2021/11/03 08:36:05;;;;;;;47.93;27.57;;;6.50;92.40;;;;;;5038086;28;20183;-84
2021/11/03 08:38:34;;;;;;;49.00;29.47;;;6.60;92.40;;;;;;5038357;28;20259;-84
2021/11/03 08:41:00;;;;;;;47.70;28.87;;;6.60;92.30;;;;;;5056051;28;20244;-83
2021/11/03 08:43:27;;;;;;;48.00;29.27;;;6.60;92.20;;;;;;5038244;28;20576;-84
2021/11/03 08:45:54;;;;;;;56.37;29.83;;;6.60;92.20;;;;;;5039156;28;20607;-84
2021/11/03 08:48:25;;;;;;;60.30;33.50;;;6.60;92.20;;;;;;5038435;28;20261;-83
2021/11/03 08:50:52;;;;;;;56.57;33.17;;;6.60;92.50;;;;;;5038916;28;20183;-84
2021/11/03 08:53:19;;;;;;;67.53;37.83;;;6.60;92.60;;;;;;5039138;28;20183;-84
2021/11/03 08:55:50;;;;;;;69.60;37.60;;;6.60;92.70;;;;;;5057596;28;20202;-84
2021/11/03 08:58:20;;;;;;;70.40;37.27;;;6.60;92.70;;;;;;5056740;28;20171;-84
2021/11/03 09:00:47;;;;;;;70.33;38.23;;;6.60;92.70;;;;;;5056989;28;20162;-84
2021/11/03 09:03:14;;;;;;;74.80;36.90;;;6.70;92.70;;;;;;5040145;28;20282;-84
2021/11/03 09:05:40;;;;;;;70.87;37.93;;;6.70;92.80;;;;;;5056843;28;20218;-84
2021/11/03 09:08:07;;;;;;;71.93;36.60;;;6.80;92.80;;;;;;5055363;28;20224;-84
2021/11/03 09:10:45;;;;;;;72.80;36.77;;;6.90;92.80;;;;;;5037331;28;20190;-84
2021/11/03 09:13:13;;;;;;;63.50;35.00;;;6.90;92.70;;;;;;5038022;28;20528;-83
2021/11/03 09:15:39;;;;;;;62.77;35.37;;;6.90;92.70;;;;;;5038300;28;20242;-83
2021/11/03 09:18:06;;;;;;;62.00;33.93;;;7.00;92.70;;;;;;5057604;28;20180;-83
2021/11/03 09:20:31;;;;;;;58.97;33.50;;;6.90;92.60;;;;;;5041198;28;20238;-83
2021/11/03 09:22:57;;;;;;;64.17;34.03;;;6.90;92.50;;;;;;5042160;28;20211;-83
2021/11/03 09:25:23;;;;;;;62.83;34.50;;;7.00;92.60;;;;;;5059748;28;20566;-83
2021/11/03 09:27:49;;;;;;;67.83;35.40;;;7.00;92.50;;;;;;5042168;28;20180;-84
2021/11/03 09:30:21;;;;;;;60.07;35.90;;;7.10;92.50;;;;;;5061654;28;20164;-83
2021/11/03 09:32:49;;;;;;;63.63;36.77;;;7.10;92.60;;;;;;5042394;28;20270;-84
2021/11/03 09:35:16;;;;;;;69.00;35.77;;;7.20;92.50;;;;;;5060285;28;20188;-83
2021/11/03 09:37:42;;;;;;;71.00;38.63;;;7.20;92.40;;;;;;5059785;28;20186;-84
2021/11/03 09:40:16;;;;;;;69.23;37.47;;;7.20;92.60;;;;;;5060587;28;20180;-83
2021/11/03 09:42:42;;;;;;;74.17;37.13;;;7.20;92.60;;;;;;5059287;28;20188;-83
2021/11/03 09:45:18;;;;;;;82.20;41.20;;;7.00;92.60;;;;;;5060708;28;20203;-83
2021/11/03 09:48:01;;;;;;;80.07;40.67;;;7.10;92.80;;;;;;5061480;28;20694;-83
2021/11/03 09:50:27;;;;;;;77.70;40.63;;;7.10;92.80;;;;;;5042241;28;20187;-84
2021/11/03 09:52:58;;;;;;;76.77;40.00;;;7.30;92.80;;;;;;5040989;28;20184;-84
2021/11/03 09:55:30;;;;;;;77.97;39.83;;;7.30;92.70;;;;;;5043248;28;20199;-84
2021/11/03 09:58:14;;;;;;;74.83;39.20;;;7.40;92.70;;;;;;5060141;28;20651;-83
2021/11/03 10:00:54;;;;;;;81.97;40.40;;;7.50;92.80;;;;;;5042774;28;20187;-84
2021/11/03 10:03:25;;;;;;;82.17;39.90;;;7.50;92.60;;;;;;5041948;28;20199;-83
2021/11/03 10:06:14;;;;;;;72.37;38.77;;;7.60;92.70;;;;;;5041754;28;20183;-83
2021/11/03 10:08:44;;;;;;;71.87;38.07;;;7.60;92.60;;;;;;5042027;28;20262;-83
2021/11/03 10:11:13;;;;;;;76.20;38.63;;;7.60;92.30;;;;;;5058553;28;20214;-83
2021/11/03 10:13:39;;;;;;;71.20;36.80;;;7.60;92.30;;;;;;5059212;28;20557;-83
2021/11/03 10:16:14;;;;;;;69.60;36.40;;;7.60;92.10;;;;;;5058975;28;20152;-83
2021/11/03 10:19:00;;;;;;;78.07;40.57;;;7.50;92.20;;;;;;5040959;28;20175;-83
2021/11/03 10:21:31;;;;;;;76.93;37.87;;;7.70;92.30;;;;;;5058117;28;20267;-83
2021/11/03 10:24:05;;;;;;;72.03;37.73;;;7.70;92.10;;;;;;5039506;28;20216;-83
2021/11/03 10:26:52;;;;;;;76.50;40.40;;;7.70;92.10;;;;;;5039642;28;20632;-83
2021/11/03 10:29:20;;;;;;;75.93;38.67;;;7.80;92.10;;;;;;5024578;28;20175;-83
2021/11/03 10:31:54;;;;;;;76.63;40.50;;;7.80;92.00;;;;;;5057069;28;20211;-83
2021/11/03 10:34:45;;;;;;;75.20;40.83;;;7.80;92.10;;;;;;5040395;28;20196;-82
2021/11/03 10:37:16;;;;;;;81.50;40.00;;;7.90;92.10;;;;;;5040901;28;20172;-83
2021/11/03 10:39:48;;;;;;;76.20;39.17;;;7.80;92.00;;;;;;5058547;28;20172;-82
2021/11/03 10:42:23;;;;;;;71.87;38.67;;;7.80;91.90;;;;;;5059658;28;20202;-82
2021/11/03 10:44:51;;;;;;;74.43;39.63;;;7.80;91.80;;;;;;5040136;28;20205;-83
2021/11/03 10:47:22;;;;;;;67.60;36.53;;;7.90;91.70;;;;;;5057080;28;20180;-83
2021/11/03 10:49:58;;;;;;;70.83;39.63;;;8.00;91.50;;;;;;5039309;28;20168;-83
2021/11/03 10:52:47;;;;;;;71.77;39.10;;;7.90;91.40;;;;;;5058286;28;20520;-82
2021/11/03 10:55:37;;;;;;;80.17;39.03;;;8.00;91.60;;;;;;5039860;28;20218;-82
2021/11/03 10:58:26;;;;;;;73.50;40.70;;;8.00;91.30;;;;;;5038848;28;20182;-83
2021/11/03 11:01:00;;;;;;;73.63;38.77;;;8.20;91.40;;;;;;5039658;28;20175;-82
2021/11/03 11:03:29;;;;;;;74.57;38.97;;;8.10;91.20;;;;;;5057001;28;20664;-82
2021/11/03 11:06:12;;;;;;;73.63;37.83;;;8.00;91.00;;;;;;5039412;28;20201;-82
2021/11/03 11:08:48;;;;;;;71.63;38.87;;;8.00;91.00;;;;;;5057176;28;20160;-83
2021/11/03 11:11:16;;;;;;;71.47;38.40;;;8.00;91.00;;;;;;5038488;28;20195;-83
2021/11/03 11:16:29;;;;;;;67.17;38.83;;;8.20;90.60;;;;;;5095605;22;20297;-87
2021/11/03 11:19:13;;;;;;;70.07;37.17;;;8.10;90.60;;;;;;5056143;28;20605;-90
2021/11/03 11:21:39;;;;;;;69.93;37.63;;;8.20;90.70;;;;;;5057292;28;20159;-92
2021/11/03 11:24:31;;;;;;;62.77;36.43;;;8.20;90.00;;;;;;5056058;28;20771;-90
2021/11/03 11:27:28;;;;;;;64.70;35.87;;;8.30;90.50;;;;;;5056119;28;20168;-92
2021/11/03 11:30:10;;;;;;;63.37;35.60;;;8.30;90.10;;;;;;5056114;28;20258;-92
2021/11/03 11:33:21;;;;;;;69.53;37.80;;;8.10;89.80;;;;;;5056079;28;20241;-90
2021/11/03 11:36:15;;;;;;;70.77;37.93;;;8.20;90.20;;;;;;5056036;28;20199;-92
2021/11/03 11:38:57;;;;;;;70.00;36.97;;;8.30;90.20;;;;;;5055926;28;20225;-92
2021/11/03 11:41:29;;;;;;;64.67;36.07;;;8.30;90.10;;;;;;5055717;28;20171;-90
2021/11/03 11:44:01;;;;;;;71.50;38.13;;;8.50;90.10;;;;;;5055673;28;20192;-90
2021/11/03 11:46:30;;;;;;;58.40;35.70;;;8.50;89.90;;;;;;5055712;28;20163;-90
2021/11/03 11:49:08;;;;;;;62.43;35.97;;;8.50;89.70;;;;;;5055620;28;20205;-90
2021/11/03 11:51:37;;;;;;;57.77;36.77;;;8.50;89.30;;;;;;5055752;28;20171;-90
2021/11/03 11:54:21;;;;;;;66.43;35.97;;;8.50;89.20;;;;;;5055634;28;20274;-90
2021/11/03 11:57:13;;;;;;;60.80;35.83;;;8.50;89.20;;;;;;5055663;28;20203;-90
2021/11/03 12:00:08;;;;;;;54.90;35.00;;;8.60;89.20;;;;;;5055586;28;20529;-90
2021/11/03 12:02:44;;;;;;;60.57;35.30;;;8.60;88.80;;;;;;5055429;28;20212;-90
2021/11/03 12:05:19;;;;;;;54.83;33.53;;;8.60;88.90;;;;;;5055544;28;20194;-90
2021/11/03 12:08:10;;;;;;;57.43;36.00;;;8.70;88.90;;;;;;5055575;28;20351;-90
2021/11/03 12:10:38;;;;;;;57.50;34.33;;;8.70;88.90;;;;;;5055460;28;20195;-90
2021/11/03 12:13:12;;;;;;;54.67;35.13;;;8.70;88.70;;;;;;5055344;28;20179;-90
2021/11/03 12:15:50;;;;;;;59.47;35.83;;;8.70;88.70;;;;;;5055279;28;20214;-90
2021/11/03 12:18:28;;;;;;;58.60;35.80;;;8.70;88.60;;;;;;5055590;28;20179;-90
2021/11/03 12:21:03;;;;;;;53.47;35.83;;;8.70;88.90;;;;;;5055217;28;20582;-90
2021/11/03 12:23:55;;;;;;;60.57;37.80;;;8.80;88.60;;;;;;5055193;28;20197;-90
2021/11/03 12:26:27;;;;;;;58.07;36.03;;;8.80;89.00;;;;;;5055160;28;20266;-90
2021/11/03 12:29:21;;;;;;;59.00;35.37;;;8.80;88.90;;;;;;5054843;28;20176;-88
2021/11/03 12:31:47;;;;;;;58.97;35.30;;;8.80;89.00;;;;;;5055246;28;20187;-89
2021/11/03 12:34:19;;;;;;;59.97;36.37;;;8.80;88.60;;;;;;5055042;28;20230;-89
2021/11/03 12:36:53;;;;;;;57.47;35.20;;;8.80;88.40;;;;;;5055222;28;20186;-88
2021/11/03 12:39:28;;;;;;;54.90;34.37;;;8.90;88.40;;;;;;5055458;28;20178;-89
2021/11/03 12:41:56;;;;;;;59.60;34.33;;;8.90;88.40;;;;;;5054933;28;20269;-89
2021/11/03 12:44:27;;;;;;;52.67;35.13;;;9.00;88.20;;;;;;5054924;28;20195;-89
2021/11/03 12:46:53;;;;;;;53.87;33.83;;;9.00;88.10;;;;;;5055151;28;20237;-89
2021/11/03 12:49:24;;;;;;;50.97;33.87;;;9.00;87.90;;;;;;5054845;28;20203;-88
2021/11/03 12:51:57;;;;;;;52.07;34.40;;;9.00;88.10;;;;;;5054937;28;20176;-88